sensor_id;sensor_type;location;lat;lon;timestamp;pressure;altitude;pressure_sealevel;temperature
11849;BMP180;5983;49.966;8.052;2023-03-05T00:01:57;100935.00;;;5.50
11849;BMP180;5983;49.966;8.052;2023-03-05T00:04:24;100938.00;;;5.50
11849;BMP180;5983;49.966;8.052;2023-03-05T00:06:51;100928.00;;;5.50
11849;BMP180;5983;49.966;8.052;2023-03-05T00:09:20;100928.00;;;5.50
11849;BMP180;5983;49.966;8.052;2023-03-05T00:11:48;100928.00;;;5.50
11849;BMP180;5983;49.966;8.052;2023-03-05T00:14:15;100919.00;;;5.50
11849;BMP180;5983;49.966;8.052;2023-03-05T00:16:42;100914.00;;;5.50
11849;BMP180;5983;49.966;8.052;2023-03-05T00:19:10;100916.00;;;5.50
11849;BMP180;5983;49.966;8.052;2023-03-05T00:21:39;100921.00;;;5.50
11849;BMP180;5983;49.966;8.052;2023-03-05T00:24:11;100925.00;;;5.50
11849;BMP180;5983;49.966;8.052;2023-03-05T00:26:38;100913.00;;;5.40
11849;BMP180;5983;49.966;8.052;2023-03-05T00:29:10;100922.00;;;5.40
11849;BMP180;5983;49.966;8.052;2023-03-05T00:31:38;100916.00;;;5.40
11849;BMP180;5983;49.966;8.052;2023-03-05T00:34:10;100915.00;;;5.40
11849;BMP180;5983;49.966;8.052;2023-03-05T00:36:39;100915.00;;;5.40
11849;BMP180;5983;49.966;8.052;2023-03-05T00:39:06;100915.00;;;5.30
11849;BMP180;5983;49.966;8.052;2023-03-05T00:41:34;100924.00;;;5.30
11849;BMP180;5983;49.966;8.052;2023-03-05T00:44:01;100913.00;;;5.30
11849;BMP180;5983;49.966;8.052;2023-03-05T00:46:29;100908.00;;;5.30
11849;BMP180;5983;49.966;8.052;2023-03-05T00:48:56;100915.00;;;5.30
11849;BMP180;5983;49.966;8.052;2023-03-05T00:51:23;100916.00;;;5.30
11849;BMP180;5983;49.966;8.052;2023-03-05T00:53:51;100908.00;;;5.30
11849;BMP180;5983;49.966;8.052;2023-03-05T00:56:18;100903.00;;;5.20
11849;BMP180;5983;49.966;8.052;2023-03-05T00:58:45;100907.00;;;5.30
11849;BMP180;5983;49.966;8.052;2023-03-05T01:01:13;100908.00;;;5.30
11849;BMP180;5983;49.966;8.052;2023-03-05T01:03:41;100897.00;;;5.30
11849;BMP180;5983;49.966;8.052;2023-03-05T01:06:11;100892.00;;;5.30
11849;BMP180;5983;49.966;8.052;2023-03-05T01:08:39;100895.00;;;5.20
11849;BMP180;5983;49.966;8.052;2023-03-05T01:11:07;100890.00;;;5.20
11849;BMP180;5983;49.966;8.052;2023-03-05T01:13:36;100892.00;;;5.30
11849;BMP180;5983;49.966;8.052;2023-03-05T01:16:04;100895.00;;;5.30
11849;BMP180;5983;49.966;8.052;2023-03-05T01:18:32;100886.00;;;5.30
11849;BMP180;5983;49.966;8.052;2023-03-05T01:21:00;100885.00;;;5.30
11849;BMP180;5983;49.966;8.052;2023-03-05T01:23:29;100874.00;;;5.30
11849;BMP180;5983;49.966;8.052;2023-03-05T01:25:57;100872.00;;;5.30
11849;BMP180;5983;49.966;8.052;2023-03-05T01:28:25;100884.00;;;5.30
11849;BMP180;5983;49.966;8.052;2023-03-05T01:30:53;100880.00;;;5.40
11849;BMP180;5983;49.966;8.052;2023-03-05T01:33:20;100872.00;;;5.40
11849;BMP180;5983;49.966;8.052;2023-03-05T01:35:47;100876.00;;;5.40
11849;BMP180;5983;49.966;8.052;2023-03-05T01:38:16;100879.00;;;5.40
11849;BMP180;5983;49.966;8.052;2023-03-05T01:40:43;100881.00;;;5.40
11849;BMP180;5983;49.966;8.052;2023-03-05T01:43:26;100864.00;;;5.30
11849;BMP180;5983;49.966;8.052;2023-03-05T01:46:25;100869.00;;;5.30
11849;BMP180;5983;49.966;8.052;2023-03-05T01:49:00;100862.00;;;5.30
11849;BMP180;5983;49.966;8.052;2023-03-05T01:51:31;100868.00;;;5.20
11849;BMP180;5983;49.966;8.052;2023-03-05T01:54:05;100856.00;;;5.20
11849;BMP180;5983;49.966;8.052;2023-03-05T01:56:33;100850.00;;;5.20
11849;BMP180;5983;49.966;8.052;2023-03-05T01:59:01;100844.00;;;5.20
11849;BMP180;5983;49.966;8.052;2023-03-05T02:01:33;100847.00;;;5.20
11849;BMP180;5983;49.966;8.052;2023-03-05T02:04:02;100838.00;;;5.20
11849;BMP180;5983;49.966;8.052;2023-03-05T02:06:29;100836.00;;;5.20
11849;BMP180;5983;49.966;8.052;2023-03-05T02:08:57;100825.00;;;5.20
11849;BMP180;5983;49.966;8.052;2023-03-05T02:11:26;100823.00;;;5.20
11849;BMP180;5983;49.966;8.052;2023-03-05T02:13:53;100826.00;;;5.20
11849;BMP180;5983;49.966;8.052;2023-03-05T02:16:20;100820.00;;;5.20
11849;BMP180;5983;49.966;8.052;2023-03-05T02:18:47;100820.00;;;5.20
11849;BMP180;5983;49.966;8.052;2023-03-05T02:21:26;100815.00;;;5.20
11849;BMP180;5983;49.966;8.052;2023-03-05T02:23:54;100821.00;;;5.10
11849;BMP180;5983;49.966;8.052;2023-03-05T02:26:21;100812.00;;;5.10
11849;BMP180;5983;49.966;8.052;2023-03-05T02:28:52;100812.00;;;5.10
11849;BMP180;5983;49.966;8.052;2023-03-05T02:31:24;100807.00;;;5.10
11849;BMP180;5983;49.966;8.052;2023-03-05T02:33:53;100813.00;;;5.10
11849;BMP180;5983;49.966;8.052;2023-03-05T02:36:23;100807.00;;;5.10
11849;BMP180;5983;49.966;8.052;2023-03-05T02:38:50;100802.00;;;5.00
11849;BMP180;5983;49.966;8.052;2023-03-05T02:41:18;100810.00;;;5.00
11849;BMP180;5983;49.966;8.052;2023-03-05T02:43:45;100804.00;;;5.00
11849;BMP180;5983;49.966;8.052;2023-03-05T02:46:12;100799.00;;;5.00
11849;BMP180;5983;49.966;8.052;2023-03-05T02:48:39;100802.00;;;5.00
11849;BMP180;5983;49.966;8.052;2023-03-05T02:51:08;100801.00;;;5.00
11849;BMP180;5983;49.966;8.052;2023-03-05T02:53:36;100797.00;;;5.00
11849;BMP180;5983;49.966;8.052;2023-03-05T02:56:04;100792.00;;;4.90
11849;BMP180;5983;49.966;8.052;2023-03-05T02:58:31;100787.00;;;4.90
11849;BMP180;5983;49.966;8.052;2023-03-05T03:00:57;100790.00;;;4.90
11849;BMP180;5983;49.966;8.052;2023-03-05T03:03:24;100787.00;;;4.90
11849;BMP180;5983;49.966;8.052;2023-03-05T03:05:51;100792.00;;;4.90
11849;BMP180;5983;49.966;8.052;2023-03-05T03:08:18;100788.00;;;5.00
11849;BMP180;5983;49.966;8.052;2023-03-05T03:10:47;100789.00;;;5.00
11849;BMP180;5983;49.966;8.052;2023-03-05T03:13:14;100779.00;;;5.00
11849;BMP180;5983;49.966;8.052;2023-03-05T03:15:40;100780.00;;;5.00
11849;BMP180;5983;49.966;8.052;2023-03-05T03:18:07;100783.00;;;5.00
11849;BMP180;5983;49.966;8.052;2023-03-05T03:20:37;100779.00;;;5.00
11849;BMP180;5983;49.966;8.052;2023-03-05T03:23:05;100788.00;;;5.00
11849;BMP180;5983;49.966;8.052;2023-03-05T03:25:33;100776.00;;;5.00
11849;BMP180;5983;49.966;8.052;2023-03-05T03:28:02;100774.00;;;4.90
11849;BMP180;5983;49.966;8.052;2023-03-05T03:30:29;100771.00;;;4.90
11849;BMP180;5983;49.966;8.052;2023-03-05T03:32:55;100774.00;;;4.90
11849;BMP180;5983;49.966;8.052;2023-03-05T03:35:22;100763.00;;;4.80
11849;BMP180;5983;49.966;8.052;2023-03-05T03:37:49;100774.00;;;4.80
11849;BMP180;5983;49.966;8.052;2023-03-05T03:40:17;100767.00;;;4.80
11849;BMP180;5983;49.966;8.052;2023-03-05T03:42:43;100761.00;;;4.80
11849;BMP180;5983;49.966;8.052;2023-03-05T03:45:13;100760.00;;;4.70
11849;BMP180;5983;49.966;8.052;2023-03-05T03:47:40;100764.00;;;4.70
11849;BMP180;5983;49.966;8.052;2023-03-05T03:50:08;100759.00;;;4.70
11849;BMP180;5983;49.966;8.052;2023-03-05T03:52:36;100751.00;;;4.70
11849;BMP180;5983;49.966;8.052;2023-03-05T03:55:03;100754.00;;;4.60
11849;BMP180;5983;49.966;8.052;2023-03-05T03:57:31;100747.00;;;4.60
11849;BMP180;5983;49.966;8.052;2023-03-05T03:59:58;100752.00;;;4.70
11849;BMP180;5983;49.966;8.052;2023-03-05T04:02:26;100753.00;;;4.60
11849;BMP180;5983;49.966;8.052;2023-03-05T04:04:53;100751.00;;;4.70
11849;BMP180;5983;49.966;8.052;2023-03-05T04:07:20;100749.00;;;4.60
11849;BMP180;5983;49.966;8.052;2023-03-05T04:09:47;100752.00;;;4.60
11849;BMP180;5983;49.966;8.052;2023-03-05T04:12:14;100747.00;;;4.60
11849;BMP180;5983;49.966;8.052;2023-03-05T04:14:44;100742.00;;;4.60
11849;BMP180;5983;49.966;8.052;2023-03-05T04:17:11;100748.00;;;4.60
11849;BMP180;5983;49.966;8.052;2023-03-05T04:19:41;100736.00;;;4.70
11849;BMP180;5983;49.966;8.052;2023-03-05T04:22:09;100745.00;;;4.70
11849;BMP180;5983;49.966;8.052;2023-03-05T04:24:37;100749.00;;;4.80
11849;BMP180;5983;49.966;8.052;2023-03-05T04:27:05;100747.00;;;4.80
11849;BMP180;5983;49.966;8.052;2023-03-05T04:29:32;100740.00;;;4.80
11849;BMP180;5983;49.966;8.052;2023-03-05T04:32:00;100742.00;;;4.80
11849;BMP180;5983;49.966;8.052;2023-03-05T04:34:27;100741.00;;;4.80
11849;BMP180;5983;49.966;8.052;2023-03-05T04:36:56;100740.00;;;4.80
11849;BMP180;5983;49.966;8.052;2023-03-05T04:39:23;100739.00;;;4.90
11849;BMP180;5983;49.966;8.052;2023-03-05T04:41:49;100742.00;;;4.90
11849;BMP180;5983;49.966;8.052;2023-03-05T04:44:16;100741.00;;;4.90
11849;BMP180;5983;49.966;8.052;2023-03-05T04:46:44;100742.00;;;4.90
11849;BMP180;5983;49.966;8.052;2023-03-05T04:49:11;100737.00;;;4.80
11849;BMP180;5983;49.966;8.052;2023-03-05T04:51:38;100734.00;;;4.80
11849;BMP180;5983;49.966;8.052;2023-03-05T04:54:06;100737.00;;;4.80
11849;BMP180;5983;49.966;8.052;2023-03-05T04:56:33;100744.00;;;4.80
11849;BMP180;5983;49.966;8.052;2023-03-05T04:59:00;100733.00;;;4.80
11849;BMP180;5983;49.966;8.052;2023-03-05T05:01:27;100733.00;;;4.80
11849;BMP180;5983;49.966;8.052;2023-03-05T05:03:54;100729.00;;;4.80
11849;BMP180;5983;49.966;8.052;2023-03-05T05:06:21;100734.00;;;4.80
11849;BMP180;5983;49.966;8.052;2023-03-05T05:08:48;100728.00;;;4.80
11849;BMP180;5983;49.966;8.052;2023-03-05T05:11:16;100728.00;;;4.70
11849;BMP180;5983;49.966;8.052;2023-03-05T05:13:43;100733.00;;;4.70
11849;BMP180;5983;49.966;8.052;2023-03-05T05:16:10;100725.00;;;4.70
11849;BMP180;5983;49.966;8.052;2023-03-05T05:18:37;100721.00;;;4.70
11849;BMP180;5983;49.966;8.052;2023-03-05T05:21:07;100725.00;;;4.70
11849;BMP180;5983;49.966;8.052;2023-03-05T05:23:35;100712.00;;;4.60
11849;BMP180;5983;49.966;8.052;2023-03-05T05:26:04;100711.00;;;4.60
11849;BMP180;5983;49.966;8.052;2023-03-05T05:28:34;100714.00;;;4.60
11849;BMP180;5983;49.966;8.052;2023-03-05T05:31:06;100719.00;;;4.60
11849;BMP180;5983;49.966;8.052;2023-03-05T05:33:33;100716.00;;;4.60
11849;BMP180;5983;49.966;8.052;2023-03-05T05:36:02;100717.00;;;4.60
11849;BMP180;5983;49.966;8.052;2023-03-05T05:38:29;100705.00;;;4.60
11849;BMP180;5983;49.966;8.052;2023-03-05T05:41:02;100713.00;;;4.60
11849;BMP180;5983;49.966;8.052;2023-03-05T05:43:30;100719.00;;;4.60
11849;BMP180;5983;49.966;8.052;2023-03-05T05:46:00;100710.00;;;4.60
11849;BMP180;5983;49.966;8.052;2023-03-05T05:48:28;100698.00;;;4.60
11849;BMP180;5983;49.966;8.052;2023-03-05T05:50:55;100703.00;;;4.60
11849;BMP180;5983;49.966;8.052;2023-03-05T05:53:22;100711.00;;;4.60
11849;BMP180;5983;49.966;8.052;2023-03-05T05:55:50;100713.00;;;4.60
11849;BMP180;5983;49.966;8.052;2023-03-05T05:58:17;100705.00;;;4.60
11849;BMP180;5983;49.966;8.052;2023-03-05T06:00:44;100712.00;;;4.50
11849;BMP180;5983;49.966;8.052;2023-03-05T06:03:12;100698.00;;;4.50
11849;BMP180;5983;49.966;8.052;2023-03-05T06:05:40;100706.00;;;4.50
11849;BMP180;5983;49.966;8.052;2023-03-05T06:08:07;100700.00;;;4.50
11849;BMP180;5983;49.966;8.052;2023-03-05T06:10:34;100701.00;;;4.50
11849;BMP180;5983;49.966;8.052;2023-03-05T06:13:01;100704.00;;;4.50
11849;BMP180;5983;49.966;8.052;2023-03-05T06:15:28;100699.00;;;4.40
11849;BMP180;5983;49.966;8.052;2023-03-05T06:17:57;100703.00;;;4.40
11849;BMP180;5983;49.966;8.052;2023-03-05T06:20:26;100708.00;;;4.40
11849;BMP180;5983;49.966;8.052;2023-03-05T06:22:53;100704.00;;;4.40
11849;BMP180;5983;49.966;8.052;2023-03-05T06:25:20;100696.00;;;4.40
11849;BMP180;5983;49.966;8.052;2023-03-05T06:27:47;100699.00;;;4.40
11849;BMP180;5983;49.966;8.052;2023-03-05T06:30:14;100693.00;;;4.40
11849;BMP180;5983;49.966;8.052;2023-03-05T06:32:41;100700.00;;;4.40
11849;BMP180;5983;49.966;8.052;2023-03-05T06:35:08;100702.00;;;4.40
11849;BMP180;5983;49.966;8.052;2023-03-05T06:37:37;100697.00;;;4.40
11849;BMP180;5983;49.966;8.052;2023-03-05T06:40:05;100693.00;;;4.40
11849;BMP180;5983;49.966;8.052;2023-03-05T06:42:33;100699.00;;;4.40
11849;BMP180;5983;49.966;8.052;2023-03-05T06:45:00;100701.00;;;4.50
11849;BMP180;5983;49.966;8.052;2023-03-05T06:47:27;100700.00;;;4.50
11849;BMP180;5983;49.966;8.052;2023-03-05T06:49:54;100693.00;;;4.50
11849;BMP180;5983;49.966;8.052;2023-03-05T06:52:21;100697.00;;;4.40
11849;BMP180;5983;49.966;8.052;2023-03-05T06:54:49;100702.00;;;4.40
11849;BMP180;5983;49.966;8.052;2023-03-05T06:57:17;100700.00;;;4.40
11849;BMP180;5983;49.966;8.052;2023-03-05T06:59:44;100707.00;;;4.40
11849;BMP180;5983;49.966;8.052;2023-03-05T07:02:11;100700.00;;;4.50
11849;BMP180;5983;49.966;8.052;2023-03-05T07:04:39;100710.00;;;4.50
11849;BMP180;5983;49.966;8.052;2023-03-05T07:07:06;100711.00;;;4.50
11849;BMP180;5983;49.966;8.052;2023-03-05T07:09:33;100701.00;;;4.60
11849;BMP180;5983;49.966;8.052;2023-03-05T07:12:01;100708.00;;;4.60
11849;BMP180;5983;49.966;8.052;2023-03-05T07:14:28;100715.00;;;4.60
11849;BMP180;5983;49.966;8.052;2023-03-05T07:16:55;100706.00;;;4.60
11849;BMP180;5983;49.966;8.052;2023-03-05T07:19:22;100712.00;;;4.60
11849;BMP180;5983;49.966;8.052;2023-03-05T07:21:49;100702.00;;;4.70
11849;BMP180;5983;49.966;8.052;2023-03-05T07:24:16;100702.00;;;4.70
11849;BMP180;5983;49.966;8.052;2023-03-05T07:26:43;100696.00;;;4.70
11849;BMP180;5983;49.966;8.052;2023-03-05T07:29:11;100696.00;;;4.80
11849;BMP180;5983;49.966;8.052;2023-03-05T07:31:38;100701.00;;;4.80
11849;BMP180;5983;49.966;8.052;2023-03-05T07:34:05;100693.00;;;4.80
11849;BMP180;5983;49.966;8.052;2023-03-05T07:36:32;100703.00;;;4.90
11849;BMP180;5983;49.966;8.052;2023-03-05T07:39:00;100696.00;;;4.90
11849;BMP180;5983;49.966;8.052;2023-03-05T07:41:27;100688.00;;;5.00
11849;BMP180;5983;49.966;8.052;2023-03-05T07:43:54;100687.00;;;5.00
11849;BMP180;5983;49.966;8.052;2023-03-05T07:46:27;100690.00;;;5.10
11849;BMP180;5983;49.966;8.052;2023-03-05T07:48:55;100696.00;;;5.10
11849;BMP180;5983;49.966;8.052;2023-03-05T07:51:25;100688.00;;;5.20
11849;BMP180;5983;49.966;8.052;2023-03-05T07:53:54;100692.00;;;5.20
11849;BMP180;5983;49.966;8.052;2023-03-05T07:56:23;100686.00;;;5.20
11849;BMP180;5983;49.966;8.052;2023-03-05T07:58:51;100689.00;;;5.30
11849;BMP180;5983;49.966;8.052;2023-03-05T08:01:18;100676.00;;;5.30
11849;BMP180;5983;49.966;8.052;2023-03-05T08:03:46;100681.00;;;5.40
11849;BMP180;5983;49.966;8.052;2023-03-05T08:06:13;100676.00;;;5.40
11849;BMP180;5983;49.966;8.052;2023-03-05T08:08:40;100671.00;;;5.50
11849;BMP180;5983;49.966;8.052;2023-03-05T08:11:10;100676.00;;;5.50
11849;BMP180;5983;49.966;8.052;2023-03-05T08:13:37;100681.00;;;5.60
11849;BMP180;5983;49.966;8.052;2023-03-05T08:16:07;100683.00;;;5.60
11849;BMP180;5983;49.966;8.052;2023-03-05T08:18:34;100681.00;;;5.70
11849;BMP180;5983;49.966;8.052;2023-03-05T08:21:03;100673.00;;;5.70
11849;BMP180;5983;49.966;8.052;2023-03-05T08:23:31;100662.00;;;5.80
11849;BMP180;5983;49.966;8.052;2023-03-05T08:25:59;100664.00;;;5.80
11849;BMP180;5983;49.966;8.052;2023-03-05T08:28:26;100670.00;;;5.80
11849;BMP180;5983;49.966;8.052;2023-03-05T08:30:53;100664.00;;;5.80
11849;BMP180;5983;49.966;8.052;2023-03-05T08:33:20;100662.00;;;5.90
11849;BMP180;5983;49.966;8.052;2023-03-05T08:35:47;100657.00;;;5.90
11849;BMP180;5983;49.966;8.052;2023-03-05T08:38:15;100663.00;;;5.90
11849;BMP180;5983;49.966;8.052;2023-03-05T08:40:42;100656.00;;;5.80
11849;BMP180;5983;49.966;8.052;2023-03-05T08:43:09;100650.00;;;5.90
11849;BMP180;5983;49.966;8.052;2023-03-05T08:45:38;100652.00;;;5.90
11849;BMP180;5983;49.966;8.052;2023-03-05T08:48:05;100650.00;;;5.90
11849;BMP180;5983;49.966;8.052;2023-03-05T08:50:32;100662.00;;;5.90
11849;BMP180;5983;49.966;8.052;2023-03-05T08:53:01;100647.00;;;6.00
11849;BMP180;5983;49.966;8.052;2023-03-05T08:55:29;100662.00;;;5.90
11849;BMP180;5983;49.966;8.052;2023-03-05T08:57:56;100653.00;;;5.90
11849;BMP180;5983;49.966;8.052;2023-03-05T09:00:23;100645.00;;;5.90
11849;BMP180;5983;49.966;8.052;2023-03-05T09:02:50;100654.00;;;5.90
11849;BMP180;5983;49.966;8.052;2023-03-05T09:05:17;100657.00;;;6.00
11849;BMP180;5983;49.966;8.052;2023-03-05T09:07:44;100657.00;;;6.00
11849;BMP180;5983;49.966;8.052;2023-03-05T09:10:12;100654.00;;;6.00
11849;BMP180;5983;49.966;8.052;2023-03-05T09:12:41;100654.00;;;6.00
11849;BMP180;5983;49.966;8.052;2023-03-05T09:15:10;100650.00;;;6.00
11849;BMP180;5983;49.966;8.052;2023-03-05T09:17:38;100652.00;;;6.00
11849;BMP180;5983;49.966;8.052;2023-03-05T09:20:10;100651.00;;;6.00
11849;BMP180;5983;49.966;8.052;2023-03-05T09:22:38;100643.00;;;6.00
11849;BMP180;5983;49.966;8.052;2023-03-05T09:25:07;100651.00;;;6.00
11849;BMP180;5983;49.966;8.052;2023-03-05T09:27:36;100636.00;;;6.00
11849;BMP180;5983;49.966;8.052;2023-03-05T09:30:06;100646.00;;;6.00
11849;BMP180;5983;49.966;8.052;2023-03-05T09:32:33;100631.00;;;6.10
11849;BMP180;5983;49.966;8.052;2023-03-05T09:35:01;100643.00;;;6.00
11849;BMP180;5983;49.966;8.052;2023-03-05T09:37:27;100644.00;;;6.00
11849;BMP180;5983;49.966;8.052;2023-03-05T09:39:55;100627.00;;;6.00
11849;BMP180;5983;49.966;8.052;2023-03-05T09:42:44;100627.00;;;6.00
11849;BMP180;5983;49.966;8.052;2023-03-05T09:45:25;100628.00;;;6.10
11849;BMP180;5983;49.966;8.052;2023-03-05T09:48:02;100640.00;;;6.10
11849;BMP180;5983;49.966;8.052;2023-03-05T09:50:37;100637.00;;;6.20
11849;BMP180;5983;49.966;8.052;2023-03-05T09:53:17;100628.00;;;6.20
11849;BMP180;5983;49.966;8.052;2023-03-05T09:55:50;100635.00;;;6.30
11849;BMP180;5983;49.966;8.052;2023-03-05T09:58:24;100629.00;;;6.30
11849;BMP180;5983;49.966;8.052;2023-03-05T10:00:59;100633.00;;;6.40
11849;BMP180;5983;49.966;8.052;2023-03-05T10:03:34;100624.00;;;6.40
11849;BMP180;5983;49.966;8.052;2023-03-05T10:06:16;100623.00;;;6.40
11849;BMP180;5983;49.966;8.052;2023-03-05T10:08:52;100625.00;;;6.40
11849;BMP180;5983;49.966;8.052;2023-03-05T10:11:39;100622.00;;;6.40
11849;BMP180;5983;49.966;8.052;2023-03-05T10:14:11;100614.00;;;6.50
11849;BMP180;5983;49.966;8.052;2023-03-05T10:19:51;100619.00;;;6.50
11849;BMP180;5983;49.966;8.052;2023-03-05T10:22:22;100613.00;;;6.60
11849;BMP180;5983;49.966;8.052;2023-03-05T10:25:17;100611.00;;;6.60
11849;BMP180;5983;49.966;8.052;2023-03-05T10:27:48;100599.00;;;6.60
11849;BMP180;5983;49.966;8.052;2023-03-05T10:30:31;100607.00;;;6.60
11849;BMP180;5983;49.966;8.052;2023-03-05T10:33:14;100611.00;;;6.70
11849;BMP180;5983;49.966;8.052;2023-03-05T10:36:25;100606.00;;;6.60
11849;BMP180;5983;49.966;8.052;2023-03-05T10:39:38;100600.00;;;6.60
11849;BMP180;5983;49.966;8.052;2023-03-05T10:42:22;100600.00;;;6.50
11849;BMP180;5983;49.966;8.052;2023-03-05T10:44:54;100599.00;;;6.60
11849;BMP180;5983;49.966;8.052;2023-03-05T10:47:28;100600.00;;;6.60
11849;BMP180;5983;49.966;8.052;2023-03-05T10:49:58;100592.00;;;6.70
11849;BMP180;5983;49.966;8.052;2023-03-05T10:52:32;100587.00;;;6.60
11849;BMP180;5983;49.966;8.052;2023-03-05T10:55:04;100588.00;;;6.60
11849;BMP180;5983;49.966;8.052;2023-03-05T10:57:37;100591.00;;;6.60
11849;BMP180;5983;49.966;8.052;2023-03-05T11:00:17;100592.00;;;6.50
11849;BMP180;5983;49.966;8.052;2023-03-05T11:02:58;100590.00;;;6.50
11849;BMP180;5983;49.966;8.052;2023-03-05T11:05:58;100594.00;;;6.60
11849;BMP180;5983;49.966;8.052;2023-03-05T11:08:30;100577.00;;;6.60
11849;BMP180;5983;49.966;8.052;2023-03-05T11:11:15;100581.00;;;6.60
11849;BMP180;5983;49.966;8.052;2023-03-05T11:13:55;100583.00;;;6.60
11849;BMP180;5983;49.966;8.052;2023-03-05T11:16:25;100579.00;;;6.50
11849;BMP180;5983;49.966;8.052;2023-03-05T11:19:18;100572.00;;;6.50
11849;BMP180;5983;49.966;8.052;2023-03-05T11:22:06;100574.00;;;6.50
11849;BMP180;5983;49.966;8.052;2023-03-05T11:24:35;100556.00;;;6.50
11849;BMP180;5983;49.966;8.052;2023-03-05T11:27:21;100563.00;;;6.60
11849;BMP180;5983;49.966;8.052;2023-03-05T11:29:49;100554.00;;;6.60
11849;BMP180;5983;49.966;8.052;2023-03-05T11:32:22;100556.00;;;6.60
11849;BMP180;5983;49.966;8.052;2023-03-05T11:34:50;100542.00;;;6.70
11849;BMP180;5983;49.966;8.052;2023-03-05T11:37:27;100533.00;;;6.70
11849;BMP180;5983;49.966;8.052;2023-03-05T11:40:17;100535.00;;;6.70
11849;BMP180;5983;49.966;8.052;2023-03-05T11:42:56;100532.00;;;6.70
11849;BMP180;5983;49.966;8.052;2023-03-05T11:45:25;100525.00;;;6.70
11849;BMP180;5983;49.966;8.052;2023-03-05T11:47:55;100530.00;;;6.70
11849;BMP180;5983;49.966;8.052;2023-03-05T11:50:26;100527.00;;;6.70
11849;BMP180;5983;49.966;8.052;2023-03-05T11:52:58;100517.00;;;6.70
11849;BMP180;5983;49.966;8.052;2023-03-05T11:55:30;100509.00;;;6.80
11849;BMP180;5983;49.966;8.052;2023-03-05T11:58:14;100510.00;;;6.80
11849;BMP180;5983;49.966;8.052;2023-03-05T12:00:45;100503.00;;;6.80
11849;BMP180;5983;49.966;8.052;2023-03-05T12:03:17;100498.00;;;6.80
11849;BMP180;5983;49.966;8.052;2023-03-05T12:05:49;100492.00;;;6.80
11849;BMP180;5983;49.966;8.052;2023-03-05T12:08:22;100498.00;;;6.90
11849;BMP180;5983;49.966;8.052;2023-03-05T12:10:52;100487.00;;;7.00
11849;BMP180;5983;49.966;8.052;2023-03-05T12:13:26;100487.00;;;6.90
11849;BMP180;5983;49.966;8.052;2023-03-05T12:16:13;100481.00;;;7.00
11849;BMP180;5983;49.966;8.052;2023-03-05T12:18:57;100482.00;;;7.00
11849;BMP180;5983;49.966;8.052;2023-03-05T12:21:33;100473.00;;;6.90
11849;BMP180;5983;49.966;8.052;2023-03-05T12:24:36;100477.00;;;7.00
11849;BMP180;5983;49.966;8.052;2023-03-05T12:27:13;100463.00;;;7.00
11849;BMP180;5983;49.966;8.052;2023-03-05T12:29:45;100466.00;;;7.10
11849;BMP180;5983;49.966;8.052;2023-03-05T12:32:51;100464.00;;;7.20
11849;BMP180;5983;49.966;8.052;2023-03-05T12:35:25;100451.00;;;7.20
11849;BMP180;5983;49.966;8.052;2023-03-05T12:41:44;100446.00;;;7.30
11849;BMP180;5983;49.966;8.052;2023-03-05T12:44:21;100434.00;;;7.30
11849;BMP180;5983;49.966;8.052;2023-03-05T12:47:15;100433.00;;;7.30
11849;BMP180;5983;49.966;8.052;2023-03-05T12:49:45;100422.00;;;7.40
11849;BMP180;5983;49.966;8.052;2023-03-05T12:52:25;100417.00;;;7.40
11849;BMP180;5983;49.966;8.052;2023-03-05T12:55:17;100419.00;;;7.40
11849;BMP180;5983;49.966;8.052;2023-03-05T12:57:53;100415.00;;;7.40
11849;BMP180;5983;49.966;8.052;2023-03-05T13:00:28;100414.00;;;7.40
11849;BMP180;5983;49.966;8.052;2023-03-05T13:03:03;100406.00;;;7.50
11849;BMP180;5983;49.966;8.052;2023-03-05T13:05:37;100398.00;;;7.50
11849;BMP180;5983;49.966;8.052;2023-03-05T13:08:19;100389.00;;;7.40
11849;BMP180;5983;49.966;8.052;2023-03-05T13:10:51;100376.00;;;7.40
11849;BMP180;5983;49.966;8.052;2023-03-05T13:13:21;100381.00;;;7.30
11849;BMP180;5983;49.966;8.052;2023-03-05T13:15:51;100382.00;;;7.40
11849;BMP180;5983;49.966;8.052;2023-03-05T13:18:20;100372.00;;;7.50
11849;BMP180;5983;49.966;8.052;2023-03-05T13:21:00;100382.00;;;7.60
11849;BMP180;5983;49.966;8.052;2023-03-05T13:23:29;100384.00;;;7.60
11849;BMP180;5983;49.966;8.052;2023-03-05T13:26:09;100378.00;;;7.60
11849;BMP180;5983;49.966;8.052;2023-03-05T13:28:38;100373.00;;;7.60
11849;BMP180;5983;49.966;8.052;2023-03-05T13:31:14;100366.00;;;7.60
11849;BMP180;5983;49.966;8.052;2023-03-05T13:33:50;100355.00;;;7.60
11849;BMP180;5983;49.966;8.052;2023-03-05T13:36:19;100367.00;;;7.60
11849;BMP180;5983;49.966;8.052;2023-03-05T13:38:49;100355.00;;;7.60
11849;BMP180;5983;49.966;8.052;2023-03-05T13:41:21;100355.00;;;7.70
11849;BMP180;5983;49.966;8.052;2023-03-05T13:43:53;100348.00;;;7.70
11849;BMP180;5983;49.966;8.052;2023-03-05T13:46:30;100354.00;;;7.70
11849;BMP180;5983;49.966;8.052;2023-03-05T13:49:17;100344.00;;;7.70
11849;BMP180;5983;49.966;8.052;2023-03-05T13:51:47;100348.00;;;7.70
11849;BMP180;5983;49.966;8.052;2023-03-05T13:54:17;100343.00;;;7.60
11849;BMP180;5983;49.966;8.052;2023-03-05T13:56:51;100340.00;;;7.60
11849;BMP180;5983;49.966;8.052;2023-03-05T13:59:22;100344.00;;;7.60
11849;BMP180;5983;49.966;8.052;2023-03-05T14:01:51;100341.00;;;7.60
11849;BMP180;5983;49.966;8.052;2023-03-05T14:04:21;100339.00;;;7.60
11849;BMP180;5983;49.966;8.052;2023-03-05T14:06:54;100337.00;;;7.60
11849;BMP180;5983;49.966;8.052;2023-03-05T14:09:25;100319.00;;;7.50
11849;BMP180;5983;49.966;8.052;2023-03-05T14:12:03;100320.00;;;7.40
11849;BMP180;5983;49.966;8.052;2023-03-05T14:14:36;100307.00;;;7.30
11849;BMP180;5983;49.966;8.052;2023-03-05T14:17:35;100305.00;;;7.20
11849;BMP180;5983;49.966;8.052;2023-03-05T14:20:24;100304.00;;;7.10
11849;BMP180;5983;49.966;8.052;2023-03-05T14:22:54;100293.00;;;7.10
11849;BMP180;5983;49.966;8.052;2023-03-05T14:25:28;100302.00;;;7.00
11849;BMP180;5983;49.966;8.052;2023-03-05T14:27:58;100293.00;;;7.00
11849;BMP180;5983;49.966;8.052;2023-03-05T14:30:27;100287.00;;;6.90
11849;BMP180;5983;49.966;8.052;2023-03-05T14:32:58;100286.00;;;6.80
11849;BMP180;5983;49.966;8.052;2023-03-05T14:35:27;100287.00;;;6.80
11849;BMP180;5983;49.966;8.052;2023-03-05T14:37:57;100277.00;;;6.80
11849;BMP180;5983;49.966;8.052;2023-03-05T14:40:31;100266.00;;;6.70
11849;BMP180;5983;49.966;8.052;2023-03-05T14:43:00;100263.00;;;6.70
11849;BMP180;5983;49.966;8.052;2023-03-05T14:45:33;100257.00;;;6.60
11849;BMP180;5983;49.966;8.052;2023-03-05T14:48:02;100259.00;;;6.60
11849;BMP180;5983;49.966;8.052;2023-03-05T14:50:33;100256.00;;;6.60